Wetmore, Texas
Current Conditions -  °F | °C
As of 11:51 AM on Friday 28 Nov 2014 (Local Time) from KSAT Reporting Station
Few Clouds Few Clouds  
Wind Chill: 67°   Ceiling: Unl
Heat Index: 67°   Visibility: 10mi
Dew Point: 51°   Wind: 17mph
Humidity: 57%   Direction: 210°SSW
Pressure: 30.26"   Gusts: NA
Location:  29.5903°N, 98.4049°W
Report Text: KSAT 281751Z 21015KT 10SM FEW032 19/11 A3026 RMK AO2 SLP235 T01940106 10194 20056 58024
Loading
Personal Weather Stations






























Interactive Weather Map New forecast layout! Learn more

10-Day Weather Forecast

Advertisements
Track Severe Weather on mobile